createdAt,value
2018-02-25T00:00:23.360Z,0.00
2018-02-25T00:01:23.162Z,0.00
2018-02-25T00:03:16.426Z,0.00
2018-02-25T00:04:16.326Z,0.00
2018-02-25T00:06:09.570Z,0.00
2018-02-25T00:07:09.497Z,0.00
2018-02-25T00:09:02.753Z,0.00
2018-02-25T00:10:02.658Z,0.00
2018-02-25T00:11:55.901Z,0.00
2018-02-25T00:12:55.825Z,0.00
2018-02-25T00:14:49.087Z,0.00
2018-02-25T00:15:48.993Z,0.00
2018-02-25T00:17:42.253Z,0.00
2018-02-25T00:18:42.158Z,0.00
2018-02-25T00:20:35.414Z,0.00
2018-02-25T00:21:35.335Z,0.00
2018-02-25T00:23:28.598Z,0.00
2018-02-25T00:24:28.501Z,0.00
2018-02-25T00:26:21.745Z,0.00
2018-02-25T00:27:21.666Z,0.00
2018-02-25T00:29:14.931Z,0.00
2018-02-25T00:30:14.827Z,0.00
2018-02-25T00:32:08.075Z,0.00
2018-02-25T00:33:08.006Z,0.00
2018-02-25T00:35:01.265Z,0.00
2018-02-25T00:36:01.162Z,0.00
2018-02-25T00:37:54.437Z,0.00
2018-02-25T00:38:54.339Z,0.00
2018-02-25T00:40:47.575Z,0.00
2018-02-25T00:41:47.499Z,0.00
2018-02-25T00:43:40.758Z,0.00
2018-02-25T00:44:40.663Z,0.00
2018-02-25T00:46:33.905Z,0.00
2018-02-25T00:47:33.828Z,0.00
2018-02-25T00:49:27.091Z,0.00
2018-02-25T00:50:26.999Z,0.00
2018-02-25T00:52:20.237Z,0.00
2018-02-25T00:53:20.161Z,0.00
2018-02-25T00:55:13.433Z,0.00
2018-02-25T00:56:13.334Z,0.00
2018-02-25T00:58:06.609Z,0.00
2018-02-25T00:59:06.510Z,0.00
2018-02-25T01:00:59.755Z,0.00
2018-02-25T01:01:59.677Z,0.00
2018-02-25T01:03:52.942Z,0.00
2018-02-25T01:04:52.843Z,0.00
2018-02-25T01:06:46.085Z,0.00
2018-02-25T01:07:46.009Z,0.00
2018-02-25T01:09:39.271Z,0.00
2018-02-25T01:10:39.174Z,0.00
2018-02-25T01:12:32.576Z,0.00
2018-02-25T01:13:32.497Z,0.00
2018-02-25T01:15:25.876Z,0.00
2018-02-25T01:16:25.661Z,0.00
2018-02-25T01:18:18.927Z,0.00
2018-02-25T01:19:18.828Z,0.00
2018-02-25T01:21:12.071Z,0.00
2018-02-25T01:22:11.994Z,0.00
2018-02-25T01:24:05.254Z,0.00
2018-02-25T01:25:05.158Z,0.00
2018-02-25T01:26:58.580Z,0.00
2018-02-25T01:27:58.501Z,0.00
2018-02-25T01:29:51.753Z,0.00
2018-02-25T01:30:51.659Z,0.00
2018-02-25T01:32:45.015Z,0.00
2018-02-25T01:33:44.822Z,0.00
2018-02-25T01:35:38.087Z,0.00
2018-02-25T01:36:37.992Z,0.00
2018-02-25T01:38:31.252Z,0.00
2018-02-25T01:39:31.157Z,0.00
2018-02-25T01:41:24.583Z,0.00
2018-02-25T01:42:24.508Z,0.00
2018-02-25T01:44:17.770Z,0.00
2018-02-25T01:45:17.673Z,0.00
2018-02-25T01:47:11.033Z,0.00
2018-02-25T01:48:10.842Z,0.00
2018-02-25T01:50:04.094Z,0.00
2018-02-25T01:51:03.997Z,0.00
2018-02-25T01:52:57.258Z,0.00
2018-02-25T01:53:57.163Z,0.00
2018-02-25T01:55:50.596Z,0.00
2018-02-25T01:56:50.500Z,0.00
2018-02-25T01:58:43.760Z,0.00
2018-02-25T01:59:43.662Z,0.00
2018-02-25T02:01:36.919Z,0.00
2018-02-25T02:02:36.836Z,0.00
2018-02-25T02:04:30.098Z,0.00
2018-02-25T02:05:30.002Z,0.00
2018-02-25T02:07:23.244Z,0.00
2018-02-25T02:08:23.165Z,0.00
2018-02-25T02:10:16.606Z,0.00
2018-02-25T02:11:16.508Z,0.00
2018-02-25T02:13:09.781Z,0.00
2018-02-25T02:14:09.682Z,0.00
2018-02-25T02:16:02.945Z,0.00
2018-02-25T02:17:02.848Z,0.00
2018-02-25T02:18:56.107Z,0.00
2018-02-25T02:19:56.006Z,0.00
2018-02-25T02:21:49.254Z,0.00
2018-02-25T02:22:49.175Z,0.00
2018-02-25T02:24:42.592Z,0.00
2018-02-25T02:25:42.494Z,0.00
2018-02-25T02:27:35.733Z,0.00
2018-02-25T02:28:35.658Z,0.00
2018-02-25T02:30:29.043Z,0.00
2018-02-25T02:31:28.814Z,0.00
2018-02-25T02:33:22.074Z,0.00
2018-02-25T02:34:21.977Z,0.00
2018-02-25T02:36:15.242Z,0.00
2018-02-25T02:37:15.140Z,0.00
2018-02-25T02:39:08.404Z,0.00
2018-02-25T02:40:08.307Z,0.00
2018-02-25T02:42:01.580Z,0.00
2018-02-25T02:43:01.493Z,0.00
2018-02-25T02:44:54.752Z,0.00
2018-02-25T02:45:54.662Z,0.00
2018-02-25T02:47:48.016Z,0.00
2018-02-25T02:48:47.826Z,0.00
2018-02-25T02:50:41.161Z,0.00
2018-02-25T02:51:40.978Z,0.00
2018-02-25T02:53:34.249Z,0.00
2018-02-25T02:54:34.145Z,0.00
2018-02-25T02:56:27.583Z,0.00
2018-02-25T02:57:27.500Z,0.00
2018-02-25T02:59:20.876Z,0.00
2018-02-25T03:00:20.664Z,0.00
2018-02-25T03:02:13.907Z,0.00
2018-02-25T03:03:13.829Z,0.00
2018-02-25T03:05:07.093Z,0.00
2018-02-25T03:06:06.992Z,0.00
2018-02-25T03:08:00.241Z,0.00
2018-02-25T03:09:00.160Z,0.00
2018-02-25T03:10:53.605Z,0.00
2018-02-25T03:11:53.505Z,0.00
2018-02-25T03:13:46.888Z,0.00
2018-02-25T03:14:46.668Z,0.00
2018-02-25T03:16:40.024Z,0.00
2018-02-25T03:17:39.860Z,0.00
2018-02-25T03:19:33.096Z,0.00
2018-02-25T03:20:33.000Z,0.00
2018-02-25T03:22:26.237Z,0.00
2018-02-25T03:23:26.161Z,0.00
2018-02-25T03:25:19.604Z,0.00
2018-02-25T03:26:19.505Z,0.00
2018-02-25T03:28:12.865Z,0.00
2018-02-25T03:29:12.671Z,0.00
2018-02-25T03:31:06.059Z,0.00
2018-02-25T03:32:05.830Z,0.00
2018-02-25T03:33:59.094Z,0.00
2018-02-25T03:34:58.999Z,0.00
2018-02-25T03:36:52.355Z,0.00
2018-02-25T03:37:52.163Z,0.00
2018-02-25T03:39:46.045Z,0.00
2018-02-25T03:40:45.503Z,0.00
2018-02-25T03:42:38.745Z,0.00
2018-02-25T03:43:38.666Z,0.00
2018-02-25T03:45:31.931Z,0.00
2018-02-25T03:46:31.833Z,0.00
2018-02-25T03:48:25.075Z,0.00
2018-02-25T03:49:25.028Z,0.00
2018-02-25T03:51:18.370Z,0.00
2018-02-25T03:52:18.158Z,0.00
2018-02-25T03:54:11.600Z,0.00
2018-02-25T03:55:11.504Z,0.00
2018-02-25T03:57:04.738Z,0.00
2018-02-25T03:58:04.661Z,0.00
2018-02-25T03:59:57.912Z,0.00
2018-02-25T04:00:57.816Z,0.00
2018-02-25T04:02:51.056Z,0.00
2018-02-25T04:03:50.979Z,0.00
2018-02-25T04:05:44.240Z,0.00
2018-02-25T04:06:44.141Z,0.00
2018-02-25T04:08:37.580Z,0.00
2018-02-25T04:09:37.499Z,0.00
2018-02-25T04:11:30.759Z,0.00
2018-02-25T04:12:30.661Z,0.00
2018-02-25T04:14:23.921Z,0.00
2018-02-25T04:15:23.823Z,0.00
2018-02-25T04:17:17.068Z,0.00
2018-02-25T04:18:16.990Z,0.00
2018-02-25T04:20:10.244Z,0.00
2018-02-25T04:21:10.142Z,0.00
2018-02-25T04:23:03.579Z,0.00
2018-02-25T04:24:03.500Z,0.00
2018-02-25T04:25:56.762Z,0.00
2018-02-25T04:26:56.663Z,0.00
2018-02-25T04:28:49.911Z,0.00
2018-02-25T04:29:49.826Z,0.00
2018-02-25T04:31:43.209Z,0.00
2018-02-25T04:32:42.987Z,0.00
2018-02-25T04:34:36.260Z,0.00
2018-02-25T04:35:36.153Z,0.00
2018-02-25T04:37:29.576Z,0.00
2018-02-25T04:38:29.503Z,0.00
2018-02-25T04:40:22.759Z,0.00
2018-02-25T04:41:22.663Z,0.00
2018-02-25T04:43:15.906Z,0.00
2018-02-25T04:44:15.829Z,0.00
2018-02-25T04:46:09.206Z,0.00
2018-02-25T04:47:08.990Z,0.00
2018-02-25T04:49:02.233Z,0.00
2018-02-25T04:50:02.152Z,0.00
2018-02-25T04:51:55.594Z,0.00
2018-02-25T04:52:55.502Z,0.00
2018-02-25T04:54:48.757Z,0.00
2018-02-25T04:55:48.662Z,0.00
2018-02-25T04:57:41.914Z,0.00
2018-02-25T04:58:41.835Z,0.00
2018-02-25T05:00:35.215Z,0.00
2018-02-25T05:01:34.996Z,0.00
2018-02-25T05:03:28.251Z,0.00
2018-02-25T05:04:28.171Z,0.00
2018-02-25T05:06:21.602Z,0.00
2018-02-25T05:07:21.498Z,0.00
2018-02-25T05:09:14.868Z,0.00
2018-02-25T05:10:14.669Z,0.00
2018-02-25T05:12:07.923Z,0.00
2018-02-25T05:13:07.848Z,0.00
2018-02-25T05:15:01.086Z,0.00
2018-02-25T05:16:00.987Z,0.00
2018-02-25T05:17:54.231Z,0.00
2018-02-25T05:18:54.150Z,0.00
2018-02-25T05:20:47.607Z,0.00
2018-02-25T05:21:47.495Z,0.00
2018-02-25T05:23:40.736Z,0.00
2018-02-25T05:24:40.658Z,0.00
2018-02-25T05:26:33.924Z,0.00
2018-02-25T05:27:33.822Z,0.00
2018-02-25T05:29:27.064Z,0.00
2018-02-25T05:30:26.992Z,0.00
2018-02-25T05:32:20.244Z,0.00
2018-02-25T05:33:20.148Z,0.00
2018-02-25T05:35:13.598Z,0.00
2018-02-25T05:36:13.500Z,0.00
2018-02-25T05:38:06.737Z,0.00
2018-02-25T05:39:06.661Z,0.00
2018-02-25T05:41:00.037Z,0.00
2018-02-25T05:41:59.828Z,0.00
2018-02-25T05:43:53.063Z,0.00
2018-02-25T05:44:52.987Z,0.00
2018-02-25T05:46:46.245Z,0.00
2018-02-25T05:47:46.147Z,0.00
2018-02-25T05:49:39.579Z,0.00
2018-02-25T05:50:39.502Z,0.00
2018-02-25T05:52:32.761Z,4.00
2018-02-25T05:53:32.663Z,0.00
2018-02-25T05:55:25.921Z,4.00
2018-02-25T05:56:25.820Z,4.00
2018-02-25T05:58:19.181Z,4.00
2018-02-25T05:59:18.987Z,4.00
2018-02-25T06:01:12.259Z,8.00
2018-02-25T06:02:12.157Z,8.00
2018-02-25T06:04:05.582Z,8.00
2018-02-25T06:05:05.506Z,12.00
2018-02-25T06:06:58.756Z,16.00
2018-02-25T06:07:58.665Z,16.00
2018-02-25T06:09:52.020Z,24.00
2018-02-25T06:10:51.842Z,28.00
2018-02-25T06:12:45.101Z,36.00
2018-02-25T06:13:45.000Z,40.00
2018-02-25T06:15:38.261Z,52.00
2018-02-25T06:16:38.162Z,60.00
2018-02-25T06:18:31.579Z,72.00
2018-02-25T06:19:31.502Z,80.00
2018-02-25T06:21:24.878Z,100.00
2018-02-25T06:22:24.666Z,108.00
2018-02-25T06:24:17.904Z,128.00
2018-02-25T06:25:17.828Z,144.00
2018-02-25T06:27:11.090Z,168.00
2018-02-25T06:28:10.989Z,184.00
2018-02-25T06:30:04.229Z,212.00
2018-02-25T06:31:04.151Z,228.00
2018-02-25T06:32:58.028Z,260.00
2018-02-25T06:33:57.500Z,280.00
2018-02-25T06:35:50.758Z,316.00
2018-02-25T06:36:50.690Z,332.00
2018-02-25T06:38:43.901Z,372.00
2018-02-25T06:39:43.815Z,392.00
2018-02-25T06:41:37.081Z,432.00
2018-02-25T06:42:36.983Z,452.00
2018-02-25T06:44:30.220Z,488.00
2018-02-25T06:45:30.144Z,512.00
2018-02-25T06:47:23.603Z,552.00
2018-02-25T06:48:23.505Z,576.00
2018-02-25T06:50:16.745Z,616.00
2018-02-25T06:51:16.669Z,636.00
2018-02-25T06:53:09.928Z,680.00
2018-02-25T06:54:09.829Z,696.00
2018-02-25T06:56:03.202Z,740.00
2018-02-25T06:57:02.990Z,760.00
2018-02-25T06:58:56.229Z,800.00
2018-02-25T06:59:56.153Z,816.00
2018-02-25T07:01:49.415Z,852.00
2018-02-25T07:02:49.315Z,872.00
2018-02-25T07:04:42.578Z,904.00
2018-02-25T07:05:42.498Z,916.00
2018-02-25T07:07:35.757Z,944.00
2018-02-25T07:08:35.658Z,960.00
2018-02-25T07:10:28.900Z,992.00
2018-02-25T07:11:28.825Z,1004.00
2018-02-25T07:13:22.080Z,1036.00
2018-02-25T07:14:21.985Z,1052.00
2018-02-25T07:16:15.244Z,1080.00
2018-02-25T07:17:15.145Z,1088.00
2018-02-25T07:19:08.582Z,1108.00
2018-02-25T07:20:08.500Z,1116.00
2018-02-25T07:22:01.877Z,1136.00
2018-02-25T07:23:01.666Z,1148.00
2018-02-25T07:24:55.020Z,1172.00
2018-02-25T07:25:54.831Z,1184.00
2018-02-25T07:27:48.107Z,1208.00
2018-02-25T07:28:47.991Z,1216.00
2018-02-25T07:30:41.229Z,1236.00
2018-02-25T07:31:41.151Z,1248.00
2018-02-25T07:33:34.408Z,1272.00
2018-02-25T07:34:34.318Z,1280.00
2018-02-25T07:36:27.689Z,1300.00
2018-02-25T07:37:27.498Z,1312.00
2018-02-25T07:39:20.736Z,1336.00
2018-02-25T07:40:20.651Z,1348.00
2018-02-25T07:42:13.947Z,1368.00
2018-02-25T07:43:13.822Z,1384.00
2018-02-25T07:45:07.063Z,1408.00
2018-02-25T07:46:06.985Z,1424.00
2018-02-25T07:48:00.245Z,1452.00
2018-02-25T07:49:00.157Z,1464.00
2018-02-25T07:50:53.505Z,1500.00
2018-02-25T07:51:53.313Z,1520.00
2018-02-25T07:53:46.596Z,1564.00
2018-02-25T07:54:46.500Z,1584.00
2018-02-25T07:56:39.758Z,1628.00
2018-02-25T07:57:39.697Z,1648.00
2018-02-25T07:59:32.899Z,1688.00
2018-02-25T08:00:32.824Z,1716.00
2018-02-25T08:02:26.198Z,1752.00
2018-02-25T08:03:26.008Z,1772.00
2018-02-25T08:05:19.229Z,1816.00
2018-02-25T08:06:19.150Z,1840.00
2018-02-25T08:08:12.595Z,1892.00
2018-02-25T08:09:12.494Z,1924.00
2018-02-25T08:11:05.740Z,1972.00
2018-02-25T08:12:05.658Z,1992.00
2018-02-25T08:13:58.914Z,1908.00
2018-02-25T08:14:58.822Z,1864.00
2018-02-25T08:16:52.080Z,1880.00
2018-02-25T08:17:51.983Z,1912.00
2018-02-25T08:19:45.224Z,2164.00
2018-02-25T08:20:45.146Z,2260.00
2018-02-25T08:22:38.601Z,2224.00
2018-02-25T08:23:38.501Z,2244.00
2018-02-25T08:25:31.742Z,2332.00
2018-02-25T08:26:31.655Z,2344.00
2018-02-25T08:28:24.910Z,2552.00
2018-02-25T08:29:24.806Z,2764.00
2018-02-25T08:31:18.162Z,2792.00
2018-02-25T08:32:17.960Z,2872.00
2018-02-25T08:34:12.069Z,3032.00
2018-02-25T08:35:11.972Z,3196.00
2018-02-25T08:37:05.236Z,3204.00
2018-02-25T08:38:05.137Z,3268.00
2018-02-25T08:39:58.379Z,3208.00
2018-02-25T08:40:58.292Z,3260.00
2018-02-25T08:42:51.545Z,3268.00
2018-02-25T08:43:51.447Z,3264.00
2018-02-25T08:45:44.694Z,3276.00
2018-02-25T08:46:44.614Z,3320.00
2018-02-25T08:48:37.868Z,3832.00
2018-02-25T08:49:37.769Z,3832.00
2018-02-25T08:51:32.018Z,4164.00
2018-02-25T08:52:31.928Z,4140.00
2018-02-25T08:54:25.186Z,4984.00
2018-02-25T08:55:25.090Z,4464.00
2018-02-25T08:57:18.595Z,5316.00
2018-02-25T08:58:18.498Z,5192.00
2018-02-25T09:00:11.736Z,5328.00
2018-02-25T09:01:11.658Z,5368.00
2018-02-25T09:03:04.912Z,5088.00
2018-02-25T09:04:04.821Z,5092.00
2018-02-25T09:05:58.054Z,5212.00
2018-02-25T09:06:57.986Z,5224.00
2018-02-25T09:08:51.357Z,5332.00
2018-02-25T09:09:51.148Z,5380.00
2018-02-25T09:11:44.580Z,5404.00
2018-02-25T09:12:44.503Z,5428.00
2018-02-25T09:14:37.767Z,5656.00
2018-02-25T09:15:37.672Z,5616.00
2018-02-25T09:17:30.942Z,5796.00
2018-02-25T09:18:30.847Z,5748.00
2018-02-25T09:20:24.092Z,5536.00
2018-02-25T09:21:24.017Z,5496.00
2018-02-25T09:23:17.304Z,5760.00
2018-02-25T09:24:17.198Z,5716.00
2018-02-25T09:26:10.636Z,6024.00
2018-02-25T09:27:10.564Z,6092.00
2018-02-25T09:29:03.826Z,6332.00
2018-02-25T09:30:03.723Z,6364.00
2018-02-25T09:31:57.082Z,6376.00
2018-02-25T09:32:56.885Z,6460.00
2018-02-25T09:34:50.155Z,6616.00
2018-02-25T09:35:50.060Z,6796.00
2018-02-25T09:37:43.321Z,7068.00
2018-02-25T09:38:43.226Z,7216.00
2018-02-25T09:40:36.613Z,7088.00
2018-02-25T09:41:36.507Z,7160.00
2018-02-25T09:43:29.776Z,7612.00
2018-02-25T09:44:29.675Z,7620.00
2018-02-25T09:46:23.033Z,7700.00
2018-02-25T09:47:22.838Z,7596.00
2018-02-25T09:49:16.104Z,6896.00
2018-02-25T09:50:16.012Z,6840.00
2018-02-25T09:52:09.252Z,7168.00
2018-02-25T09:53:09.181Z,7576.00
2018-02-25T09:55:02.590Z,7756.00
2018-02-25T09:56:02.499Z,7744.00
2018-02-25T09:57:55.761Z,7532.00
2018-02-25T09:58:55.666Z,7420.00
2018-02-25T10:00:48.910Z,7324.00
2018-02-25T10:01:48.839Z,7296.00
2018-02-25T10:03:42.221Z,7276.00
2018-02-25T10:04:42.016Z,7316.00
2018-02-25T10:06:35.273Z,7432.00
2018-02-25T10:07:35.197Z,7540.00
2018-02-25T10:09:28.592Z,7624.00
2018-02-25T10:10:28.499Z,7652.00
2018-02-25T10:12:21.751Z,7696.00
2018-02-25T10:13:21.681Z,7724.00
2018-02-25T10:15:14.951Z,7772.00
2018-02-25T10:16:14.861Z,7840.00
2018-02-25T10:18:08.130Z,7552.00
2018-02-25T10:19:08.038Z,7840.00
2018-02-25T10:21:01.401Z,8096.00
2018-02-25T10:22:01.252Z,8096.00
2018-02-25T10:23:54.594Z,8184.00
2018-02-25T10:24:54.500Z,8000.00
2018-02-25T10:26:47.862Z,7644.00
2018-02-25T10:27:47.677Z,7592.00
2018-02-25T10:29:41.058Z,7992.00
2018-02-25T10:30:40.861Z,7944.00
2018-02-25T10:32:34.113Z,7984.00
2018-02-25T10:33:34.040Z,8036.00
2018-02-25T10:35:27.307Z,8004.00
2018-02-25T10:36:27.214Z,8132.00
2018-02-25T10:38:20.599Z,8164.00
2018-02-25T10:39:20.509Z,8188.00
2018-02-25T10:41:13.755Z,8216.00
2018-02-25T10:42:13.680Z,8220.00
2018-02-25T10:44:06.992Z,7552.00
2018-02-25T10:45:06.857Z,7760.00
2018-02-25T10:47:00.109Z,7404.00
2018-02-25T10:48:00.036Z,7224.00
2018-02-25T10:49:53.300Z,7916.00
2018-02-25T10:50:53.200Z,8292.00
2018-02-25T10:52:46.574Z,8304.00
2018-02-25T10:53:46.502Z,8528.00
2018-02-25T10:55:39.765Z,8536.00
2018-02-25T10:56:39.668Z,7872.00
2018-02-25T10:58:32.929Z,8796.00
2018-02-25T10:59:32.839Z,8720.00
2018-02-25T11:01:26.195Z,8864.00
2018-02-25T11:02:26.004Z,8748.00
2018-02-25T11:04:19.262Z,8164.00
2018-02-25T11:05:19.169Z,8352.00
2018-02-25T11:07:12.573Z,8584.00
2018-02-25T11:08:12.499Z,8428.00
2018-02-25T11:10:05.776Z,7348.00
2018-02-25T11:11:05.668Z,7112.00
2018-02-25T11:12:58.906Z,6992.00
2018-02-25T11:13:58.831Z,7880.00
2018-02-25T11:15:52.092Z,7188.00
2018-02-25T11:16:52.000Z,6920.00
2018-02-25T11:18:45.266Z,7152.00
2018-02-25T11:19:45.171Z,7012.00
2018-02-25T11:21:38.592Z,6388.00
2018-02-25T11:22:38.500Z,6108.00
2018-02-25T11:24:31.755Z,6548.00
2018-02-25T11:25:31.663Z,6812.00
2018-02-25T11:27:24.904Z,6960.00
2018-02-25T11:28:24.825Z,6800.00
2018-02-25T11:30:18.092Z,6552.00
2018-02-25T11:31:18.024Z,6912.00
2018-02-25T11:33:11.228Z,6932.00
2018-02-25T11:34:11.154Z,6844.00
2018-02-25T11:36:04.591Z,6940.00
2018-02-25T11:37:04.497Z,6704.00
2018-02-25T11:38:57.875Z,6416.00
2018-02-25T11:39:57.656Z,6500.00
2018-02-25T11:41:50.891Z,6436.00
2018-02-25T11:42:50.824Z,6648.00
2018-02-25T11:44:44.215Z,6948.00
2018-02-25T11:45:43.976Z,6840.00
2018-02-25T11:47:37.220Z,6468.00
2018-02-25T11:48:37.140Z,6284.00
2018-02-25T11:50:30.588Z,6180.00
2018-02-25T11:51:30.495Z,5904.00
2018-02-25T11:53:23.732Z,5696.00
2018-02-25T11:54:23.653Z,5336.00
2018-02-25T11:56:16.913Z,5316.00
2018-02-25T11:57:16.817Z,4916.00
2018-02-25T11:59:10.074Z,4700.00
2018-02-25T12:00:09.979Z,4820.00
2018-02-25T12:02:03.226Z,5280.00
2018-02-25T12:03:03.139Z,5220.00
2018-02-25T12:04:56.594Z,5280.00
2018-02-25T12:05:56.499Z,5340.00
2018-02-25T12:07:49.785Z,5376.00
2018-02-25T12:08:49.707Z,5364.00
2018-02-25T12:10:43.013Z,5296.00
2018-02-25T12:11:42.923Z,5256.00
2018-02-25T12:13:36.155Z,5172.00
2018-02-25T12:14:36.083Z,5180.00
2018-02-25T12:16:29.333Z,5172.00
2018-02-25T12:17:29.247Z,5152.00
2018-02-25T12:19:22.605Z,5136.00
2018-02-25T12:20:22.507Z,5136.00
2018-02-25T12:22:15.744Z,5124.00
2018-02-25T12:23:15.666Z,5128.00
2018-02-25T12:25:08.923Z,5132.00
2018-02-25T12:26:08.825Z,5148.00
2018-02-25T12:28:02.064Z,5072.00
2018-02-25T12:29:02.011Z,5176.00
2018-02-25T12:30:55.240Z,5284.00
2018-02-25T12:31:55.143Z,5320.00
2018-02-25T12:33:48.577Z,5380.00
2018-02-25T12:34:48.502Z,5436.00
2018-02-25T12:36:41.884Z,5468.00
2018-02-25T12:37:41.668Z,5492.00
2018-02-25T12:39:35.046Z,5700.00
2018-02-25T12:40:34.826Z,5728.00
2018-02-25T12:42:28.071Z,5520.00
2018-02-25T12:43:27.995Z,5464.00
2018-02-25T12:45:21.250Z,5616.00
2018-02-25T12:46:21.156Z,5552.00
2018-02-25T12:48:14.575Z,5400.00
2018-02-25T12:49:14.498Z,5064.00
2018-02-25T12:51:07.754Z,4952.00
2018-02-25T12:52:07.658Z,4760.00
2018-02-25T12:54:01.022Z,4660.00
2018-02-25T12:55:00.816Z,4624.00
2018-02-25T12:56:54.199Z,4980.00
2018-02-25T12:57:53.977Z,5088.00
2018-02-25T12:59:47.234Z,5228.00
2018-02-25T13:00:47.144Z,5216.00
2018-02-25T13:02:40.576Z,5188.00
2018-02-25T13:03:40.502Z,5104.00
2018-02-25T13:05:33.755Z,4848.00
2018-02-25T13:06:33.667Z,4732.00
2018-02-25T13:08:26.896Z,4844.00
2018-02-25T13:09:26.822Z,4876.00
2018-02-25T13:11:20.079Z,4884.00
2018-02-25T13:12:19.983Z,4888.00
2018-02-25T13:14:13.228Z,4880.00
2018-02-25T13:15:13.150Z,4900.00
2018-02-25T13:17:06.599Z,4632.00
2018-02-25T13:18:06.504Z,4512.00
2018-02-25T13:19:59.769Z,4356.00
2018-02-25T13:20:59.661Z,4112.00
2018-02-25T13:22:52.902Z,4556.00
2018-02-25T13:23:52.825Z,4220.00
2018-02-25T13:25:46.101Z,4176.00
2018-02-25T13:26:46.012Z,4284.00
2018-02-25T13:28:39.418Z,3952.00
2018-02-25T13:29:39.171Z,4240.00
2018-02-25T13:31:32.597Z,4136.00
2018-02-25T13:32:32.501Z,4124.00
2018-02-25T13:34:25.786Z,4040.00
2018-02-25T13:35:25.661Z,4016.00
2018-02-25T13:37:18.916Z,4000.00
2018-02-25T13:38:18.820Z,3996.00
2018-02-25T13:40:12.082Z,3980.00
2018-02-25T13:41:11.984Z,3980.00
2018-02-25T13:43:05.350Z,3924.00
2018-02-25T13:44:05.144Z,3896.00
2018-02-25T13:45:58.398Z,3880.00
2018-02-25T13:46:58.303Z,3848.00
2018-02-25T13:48:51.542Z,3824.00
2018-02-25T13:49:51.462Z,3796.00
2018-02-25T13:51:45.741Z,3772.00
2018-02-25T13:52:45.626Z,3768.00
2018-02-25T13:54:38.984Z,3756.00
2018-02-25T13:55:38.785Z,3776.00
2018-02-25T13:57:32.047Z,3756.00
2018-02-25T13:58:31.953Z,3760.00
2018-02-25T14:00:25.208Z,3756.00
2018-02-25T14:01:25.112Z,3764.00
2018-02-25T14:03:18.346Z,3768.00
2018-02-25T14:04:18.270Z,3776.00
2018-02-25T14:06:11.650Z,3784.00
2018-02-25T14:07:11.450Z,3784.00
2018-02-25T14:09:04.688Z,3820.00
2018-02-25T14:10:04.587Z,3840.00
2018-02-25T14:11:57.853Z,3868.00
2018-02-25T14:12:57.755Z,3892.00
2018-02-25T14:14:50.991Z,3976.00
2018-02-25T14:15:50.912Z,4020.00
2018-02-25T14:17:44.176Z,4104.00
2018-02-25T14:18:44.081Z,4112.00
2018-02-25T14:20:37.463Z,4120.00
2018-02-25T14:21:37.247Z,4116.00
2018-02-25T14:23:30.590Z,4096.00
2018-02-25T14:24:30.503Z,4056.00
2018-02-25T14:26:23.762Z,4036.00
2018-02-25T14:27:23.666Z,4060.00
2018-02-25T14:29:17.026Z,4112.00
2018-02-25T14:30:16.823Z,4080.00
2018-02-25T14:32:10.086Z,4020.00
2018-02-25T14:33:09.983Z,3940.00
2018-02-25T14:35:03.220Z,3820.00
2018-02-25T14:36:03.143Z,3744.00
2018-02-25T14:37:56.588Z,3816.00
2018-02-25T14:38:56.496Z,3000.00
2018-02-25T14:40:49.754Z,3824.00
2018-02-25T14:41:49.656Z,3744.00
2018-02-25T14:43:43.015Z,3696.00
2018-02-25T14:44:42.825Z,3568.00
2018-02-25T14:46:36.081Z,3396.00
2018-02-25T14:47:35.998Z,3316.00
2018-02-25T14:49:29.374Z,3276.00
2018-02-25T14:50:29.144Z,3208.00
2018-02-25T14:52:22.593Z,3276.00
2018-02-25T14:53:22.546Z,3252.00
2018-02-25T14:55:15.858Z,3208.00
2018-02-25T14:56:15.668Z,3124.00
2018-02-25T14:58:08.924Z,2956.00
2018-02-25T14:59:08.828Z,2932.00
2018-02-25T15:01:02.208Z,2908.00
2018-02-25T15:02:01.985Z,3072.00
2018-02-25T15:03:55.221Z,3248.00
2018-02-25T15:04:55.143Z,3340.00
2018-02-25T15:06:48.600Z,3488.00
2018-02-25T15:07:48.506Z,3528.00
2018-02-25T15:09:41.750Z,3468.00
2018-02-25T15:10:41.675Z,3408.00
2018-02-25T15:12:34.940Z,3352.00
2018-02-25T15:13:34.832Z,3368.00
2018-02-25T15:15:28.071Z,3504.00
2018-02-25T15:16:27.996Z,3560.00
2018-02-25T15:18:21.249Z,3576.00
2018-02-25T15:19:21.151Z,3584.00
2018-02-25T15:21:14.606Z,3708.00
2018-02-25T15:22:14.509Z,3800.00
2018-02-25T15:24:08.754Z,3804.00
2018-02-25T15:25:08.681Z,3872.00
2018-02-25T15:27:01.933Z,3944.00
2018-02-25T15:28:01.840Z,3988.00
2018-02-25T15:29:55.078Z,3788.00
2018-02-25T15:30:54.998Z,3616.00
2018-02-25T15:32:48.254Z,3376.00
2018-02-25T15:33:48.158Z,3228.00
2018-02-25T15:35:41.413Z,2916.00
2018-02-25T15:36:41.318Z,2736.00
2018-02-25T15:38:34.603Z,2256.00
2018-02-25T15:39:34.516Z,2104.00
2018-02-25T15:41:27.765Z,1760.00
2018-02-25T15:42:27.668Z,1652.00
2018-02-25T15:44:20.926Z,1444.00
2018-02-25T15:45:20.855Z,1236.00
2018-02-25T15:47:14.217Z,1056.00
2018-02-25T15:48:14.005Z,1004.00
2018-02-25T15:50:07.239Z,964.00
2018-02-25T15:51:07.158Z,964.00
2018-02-25T15:53:00.403Z,908.00
2018-02-25T15:54:00.315Z,884.00
2018-02-25T15:55:53.693Z,816.00
2018-02-25T15:56:53.504Z,776.00
2018-02-25T15:58:46.753Z,704.00
2018-02-25T15:59:46.683Z,680.00
2018-02-25T16:01:39.917Z,664.00
2018-02-25T16:02:39.823Z,648.00
2018-02-25T16:04:33.054Z,604.00
2018-02-25T16:05:32.979Z,584.00
2018-02-25T16:07:26.245Z,520.00
2018-02-25T16:08:26.152Z,476.00
2018-02-25T16:10:19.580Z,440.00
2018-02-25T16:11:19.496Z,440.00
2018-02-25T16:13:12.754Z,384.00
2018-02-25T16:14:12.660Z,368.00
2018-02-25T16:16:05.915Z,356.00
2018-02-25T16:17:05.815Z,340.00
2018-02-25T16:18:59.050Z,312.00
2018-02-25T16:19:58.973Z,304.00
2018-02-25T16:21:52.228Z,292.00
2018-02-25T16:22:52.132Z,288.00
2018-02-25T16:24:45.578Z,284.00
2018-02-25T16:25:45.505Z,284.00
2018-02-25T16:27:38.879Z,320.00
2018-02-25T16:28:38.657Z,336.00
2018-02-25T16:30:31.899Z,332.00
2018-02-25T16:31:31.824Z,320.00
2018-02-25T16:33:25.081Z,276.00
2018-02-25T16:34:24.986Z,256.00
2018-02-25T16:36:18.242Z,244.00
2018-02-25T16:37:18.147Z,240.00
2018-02-25T16:39:11.585Z,224.00
2018-02-25T16:40:11.493Z,220.00
2018-02-25T16:42:04.747Z,208.00
2018-02-25T16:43:04.648Z,204.00
2018-02-25T16:44:57.884Z,188.00
2018-02-25T16:45:57.804Z,180.00
2018-02-25T16:47:51.086Z,164.00
2018-02-25T16:48:50.991Z,156.00
2018-02-25T16:50:44.230Z,144.00
2018-02-25T16:51:44.150Z,132.00
2018-02-25T16:53:37.591Z,120.00
2018-02-25T16:54:37.554Z,116.00
2018-02-25T16:56:30.756Z,100.00
2018-02-25T16:57:30.657Z,96.00
2018-02-25T16:59:23.885Z,84.00
2018-02-25T17:00:23.810Z,76.00
2018-02-25T17:02:17.062Z,68.00
2018-02-25T17:03:16.966Z,64.00
2018-02-25T17:05:10.201Z,52.00
2018-02-25T17:06:10.121Z,48.00
2018-02-25T17:08:03.603Z,40.00
2018-02-25T17:09:03.504Z,36.00
2018-02-25T17:10:56.765Z,32.00
2018-02-25T17:11:56.670Z,24.00
2018-02-25T17:13:49.939Z,20.00
2018-02-25T17:14:49.843Z,16.00
2018-02-25T17:16:43.104Z,16.00
2018-02-25T17:17:43.008Z,12.00
2018-02-25T17:19:36.252Z,12.00
2018-02-25T17:20:36.181Z,8.00
2018-02-25T17:22:29.593Z,4.00
2018-02-25T17:23:29.502Z,4.00
2018-02-25T17:25:22.743Z,4.00
2018-02-25T17:26:22.668Z,4.00
2018-02-25T17:28:15.927Z,4.00
2018-02-25T17:29:15.832Z,0.00
2018-02-25T17:31:09.079Z,4.00
2018-02-25T17:32:09.002Z,4.00
2018-02-25T17:34:02.268Z,0.00
2018-02-25T17:35:02.171Z,0.00
2018-02-25T17:36:55.596Z,0.00
2018-02-25T17:37:55.497Z,0.00
2018-02-25T17:39:48.743Z,0.00
2018-02-25T17:40:48.665Z,0.00
2018-02-25T17:42:41.931Z,0.00
2018-02-25T17:43:41.837Z,0.00
2018-02-25T17:45:35.082Z,0.00
2018-02-25T17:46:35.006Z,0.00
2018-02-25T17:48:28.276Z,0.00
2018-02-25T17:49:28.177Z,0.00
2018-02-25T17:51:21.576Z,0.00
2018-02-25T17:52:21.492Z,0.00
2018-02-25T17:54:14.770Z,0.00
2018-02-25T17:55:24.374Z,0.00
2018-02-25T17:57:07.936Z,0.00
2018-02-25T17:58:07.842Z,0.00
2018-02-25T18:00:01.081Z,0.00
2018-02-25T18:01:00.999Z,0.00
2018-02-25T18:02:54.380Z,0.00
2018-02-25T18:03:54.173Z,0.00
2018-02-25T18:05:47.572Z,0.00
2018-02-25T18:06:47.491Z,0.00
2018-02-25T18:08:40.763Z,0.00
2018-02-25T18:09:40.656Z,0.00
2018-02-25T18:11:33.904Z,0.00